createdAt,value
2018-03-27T00:00:38.126Z,71.28
2018-03-27T00:01:02.643Z,71.57
2018-03-27T00:02:23.976Z,72.04
2018-03-27T00:03:03.010Z,71.62
2018-03-27T00:04:03.172Z,71.47
2018-03-27T00:05:03.332Z,71.00
2018-03-27T00:06:03.501Z,71.15
2018-03-27T00:07:03.697Z,71.66
2018-03-27T00:08:03.960Z,71.66
2018-03-27T00:09:39.622Z,72.14
2018-03-27T00:10:04.135Z,72.23
2018-03-27T00:11:19.127Z,72.14
2018-03-27T00:12:04.402Z,71.57
2018-03-27T00:13:04.565Z,71.28
2018-03-27T00:14:04.725Z,70.43
2018-03-27T00:15:04.886Z,70.81
2018-03-27T00:16:40.622Z,70.43
2018-03-27T00:17:05.273Z,70.81
2018-03-27T00:18:05.431Z,70.62
2018-03-27T00:19:05.592Z,70.90
2018-03-27T00:20:05.758Z,71.09
2018-03-27T00:21:05.920Z,71.09
2018-03-27T00:22:06.083Z,71.00
2018-03-27T00:23:06.253Z,71.09
2018-03-27T00:24:06.408Z,71.09
2018-03-27T00:25:06.577Z,71.57
2018-03-27T00:26:06.759Z,70.72
2018-03-27T00:27:06.896Z,70.81
2018-03-27T00:28:07.064Z,71.00
2018-03-27T00:29:07.221Z,70.72
2018-03-27T00:30:07.388Z,70.53
2018-03-27T00:31:07.548Z,70.34
2018-03-27T00:32:07.718Z,70.43
2018-03-27T00:33:07.874Z,69.77
2018-03-27T00:34:08.038Z,69.48
2018-03-27T00:35:08.199Z,69.48
2018-03-27T00:36:44.131Z,69.77
2018-03-27T00:37:08.512Z,69.86
2018-03-27T00:38:08.681Z,69.67
2018-03-27T00:39:08.844Z,69.77
2018-03-27T00:40:09.015Z,70.05
2018-03-27T00:41:09.212Z,69.96
2018-03-27T00:42:09.333Z,70.24
2018-03-27T00:43:09.500Z,70.34
2018-03-27T00:44:09.658Z,70.53
2018-03-27T00:45:09.821Z,70.24
2018-03-27T00:46:09.992Z,69.67
2018-03-27T00:47:10.156Z,69.57
2018-03-27T00:48:10.325Z,69.57
2018-03-27T00:49:10.483Z,70.34
2018-03-27T00:50:10.647Z,70.24
2018-03-27T00:51:10.811Z,70.62
2018-03-27T00:52:10.975Z,70.81
2018-03-27T00:53:11.141Z,70.15
2018-03-27T00:54:11.299Z,70.81
2018-03-27T00:55:11.474Z,70.34
2018-03-27T00:56:11.627Z,70.15
2018-03-27T00:57:11.799Z,70.34
2018-03-27T00:58:11.963Z,70.24
2018-03-27T00:59:12.126Z,70.81
2018-03-27T01:00:12.288Z,70.72
2018-03-27T01:01:12.458Z,70.43
2018-03-27T01:02:12.614Z,70.62
2018-03-27T01:03:12.778Z,70.62
2018-03-27T01:04:12.953Z,71.28
2018-03-27T01:05:13.119Z,71.57
2018-03-27T01:06:13.282Z,71.28
2018-03-27T01:07:13.439Z,71.19
2018-03-27T01:08:13.615Z,71.19
2018-03-27T01:09:41.856Z,70.62
2018-03-27T01:10:13.993Z,71.19
2018-03-27T01:11:14.156Z,72.99
2018-03-27T01:12:14.320Z,73.14
2018-03-27T01:13:14.481Z,73.52
2018-03-27T01:14:14.645Z,73.61
2018-03-27T01:15:14.804Z,73.61
2018-03-27T01:16:14.968Z,73.99
2018-03-27T01:17:15.133Z,73.99
2018-03-27T01:18:15.294Z,73.80
2018-03-27T01:19:15.454Z,73.65
2018-03-27T01:20:15.620Z,73.52
2018-03-27T01:21:15.772Z,73.27
2018-03-27T01:22:15.946Z,73.27
2018-03-27T01:23:16.105Z,73.37
2018-03-27T01:24:16.269Z,72.71
2018-03-27T01:25:16.418Z,72.23
2018-03-27T01:26:16.590Z,72.23
2018-03-27T01:27:16.742Z,72.67
2018-03-27T01:28:16.901Z,72.77
2018-03-27T01:29:17.059Z,73.05
2018-03-27T01:30:38.222Z,72.67
2018-03-27T01:31:17.366Z,73.43
2018-03-27T01:32:17.533Z,72.67
2018-03-27T01:33:17.700Z,72.48
2018-03-27T01:34:17.869Z,72.19
2018-03-27T01:35:18.028Z,72.29
2018-03-27T01:36:18.190Z,72.19
2018-03-27T01:37:18.362Z,72.67
2018-03-27T01:38:18.521Z,72.80
2018-03-27T01:39:18.682Z,72.77
2018-03-27T01:40:18.841Z,72.61
2018-03-27T01:41:19.002Z,72.86
2018-03-27T01:42:19.159Z,72.77
2018-03-27T01:43:19.325Z,72.77
2018-03-27T01:44:19.494Z,72.96
2018-03-27T01:45:19.653Z,72.77
2018-03-27T01:46:19.825Z,73.33
2018-03-27T01:47:19.995Z,73.52
2018-03-27T01:48:20.168Z,73.33
2018-03-27T01:49:20.327Z,73.52
2018-03-27T01:50:35.143Z,73.99
2018-03-27T01:51:20.668Z,73.61
2018-03-27T01:52:20.824Z,73.71
2018-03-27T01:53:20.988Z,73.71
2018-03-27T01:54:21.142Z,74.28
2018-03-27T01:55:21.313Z,74.56
2018-03-27T01:56:21.493Z,74.85
2018-03-27T01:57:43.645Z,75.13
2018-03-27T01:58:21.784Z,75.60
2018-03-27T01:59:21.955Z,75.60
2018-03-27T02:00:22.093Z,75.60
2018-03-27T02:01:43.471Z,75.32
2018-03-27T02:02:22.784Z,75.51
2018-03-27T02:03:22.800Z,74.85
2018-03-27T02:04:50.911Z,74.66
2018-03-27T02:05:23.272Z,74.66
2018-03-27T02:06:30.195Z,74.66
2018-03-27T02:08:55.697Z,73.71
2018-03-27T02:09:55.880Z,73.71
2018-03-27T02:10:56.062Z,73.84
2018-03-27T02:11:56.200Z,73.71
2018-03-27T02:12:56.419Z,73.90
2018-03-27T02:13:56.041Z,73.94
2018-03-27T02:14:56.205Z,73.71
2018-03-27T02:15:56.416Z,73.94
2018-03-27T02:16:56.533Z,73.56
2018-03-27T02:17:56.693Z,73.27
2018-03-27T02:18:56.861Z,73.27
2018-03-27T02:19:57.038Z,73.37
2018-03-27T02:20:57.195Z,72.99
2018-03-27T02:21:57.354Z,72.61
2018-03-27T02:22:57.520Z,73.37
2018-03-27T02:23:58.644Z,73.18
2018-03-27T02:24:58.642Z,73.08
2018-03-27T02:25:58.008Z,72.89
2018-03-27T02:26:58.170Z,73.18
2018-03-27T02:27:58.332Z,72.80
2018-03-27T02:28:58.490Z,72.89
2018-03-27T02:29:58.651Z,73.75
2018-03-27T02:30:58.814Z,74.41
2018-03-27T02:31:58.973Z,74.95
2018-03-27T02:32:59.135Z,74.66
2018-03-27T02:33:59.318Z,75.04
2018-03-27T02:34:59.461Z,75.42
2018-03-27T02:35:59.629Z,75.98
2018-03-27T02:36:59.785Z,75.89
2018-03-27T02:37:59.948Z,76.08
2018-03-27T02:39:00.111Z,76.36
2018-03-27T02:40:00.273Z,75.89
2018-03-27T02:41:00.434Z,75.89
2018-03-27T02:42:00.595Z,75.89
2018-03-27T02:43:00.767Z,76.08
2018-03-27T02:44:00.922Z,76.36
2018-03-27T02:45:01.084Z,76.17
2018-03-27T02:46:01.608Z,76.27
2018-03-27T02:47:01.814Z,76.84
2018-03-27T02:48:01.968Z,76.74
2018-03-27T02:49:02.172Z,76.97
2018-03-27T02:50:02.351Z,76.31
2018-03-27T02:51:02.572Z,76.40
2018-03-27T02:52:02.789Z,76.12
2018-03-27T02:53:02.974Z,75.60
2018-03-27T02:54:02.766Z,75.79
2018-03-27T02:55:02.929Z,75.98
2018-03-27T02:56:03.089Z,76.93
2018-03-27T02:57:03.251Z,76.93
2018-03-27T02:58:03.411Z,77.31
2018-03-27T02:59:03.578Z,77.59
2018-03-27T03:00:03.736Z,77.12
2018-03-27T03:01:03.895Z,77.40
2018-03-27T03:02:04.071Z,77.50
2018-03-27T03:03:04.230Z,77.22
2018-03-27T03:04:04.392Z,77.25
2018-03-27T03:05:04.550Z,76.78
2018-03-27T03:06:04.712Z,76.59
2018-03-27T03:07:04.872Z,77.06
2018-03-27T03:08:05.036Z,76.40
2018-03-27T03:09:05.198Z,76.40
2018-03-27T03:10:05.360Z,76.78
2018-03-27T03:11:05.522Z,76.87
2018-03-27T03:12:05.690Z,76.87
2018-03-27T03:13:05.843Z,76.87
2018-03-27T03:14:06.010Z,76.87
2018-03-27T03:15:06.170Z,76.97
2018-03-27T03:16:06.331Z,76.87
2018-03-27T03:17:06.490Z,76.68
2018-03-27T03:18:06.654Z,76.68
2018-03-27T03:19:06.864Z,76.68
2018-03-27T03:20:06.984Z,76.50
2018-03-27T03:21:07.142Z,77.64
2018-03-27T03:22:07.304Z,77.06
2018-03-27T03:23:07.476Z,77.35
2018-03-27T03:24:07.636Z,77.73
2018-03-27T03:25:07.800Z,76.97
2018-03-27T03:26:07.958Z,76.87
2018-03-27T03:27:08.119Z,76.59
2018-03-27T03:28:08.283Z,77.16
2018-03-27T03:29:08.447Z,76.97
2018-03-27T03:30:08.609Z,76.59
2018-03-27T03:31:08.774Z,76.59
2018-03-27T03:32:08.931Z,76.03
2018-03-27T03:33:09.098Z,75.36
2018-03-27T03:34:09.259Z,76.03
2018-03-27T03:35:09.416Z,76.03
2018-03-27T03:36:10.009Z,76.03
2018-03-27T03:37:10.135Z,76.03
2018-03-27T03:38:10.276Z,75.45
2018-03-27T03:39:10.026Z,75.84
2018-03-27T03:40:10.189Z,76.03
2018-03-27T03:41:10.493Z,76.12
2018-03-27T03:42:10.508Z,76.78
2018-03-27T03:43:10.700Z,77.06
2018-03-27T03:44:11.059Z,76.97
2018-03-27T03:45:10.945Z,76.68
2018-03-27T03:46:11.302Z,76.68
2018-03-27T03:47:11.403Z,76.40
2018-03-27T03:48:11.591Z,76.40
2018-03-27T03:49:11.841Z,76.50
2018-03-27T03:50:11.948Z,76.97
2018-03-27T03:51:11.848Z,77.73
2018-03-27T03:52:12.006Z,77.45
2018-03-27T03:53:12.180Z,77.16
2018-03-27T03:54:12.338Z,77.45
2018-03-27T03:55:12.498Z,77.35
2018-03-27T03:56:12.663Z,77.73
2018-03-27T03:57:12.825Z,77.35
2018-03-27T03:58:12.983Z,77.45
2018-03-27T03:59:13.146Z,77.54
2018-03-27T04:00:13.310Z,77.83
2018-03-27T04:01:13.470Z,77.64
2018-03-27T04:02:13.632Z,77.54
2018-03-27T04:03:13.792Z,78.02
2018-03-27T04:04:13.957Z,78.02
2018-03-27T04:05:14.113Z,78.58
2018-03-27T04:06:14.278Z,77.73
2018-03-27T04:07:14.439Z,77.83
2018-03-27T04:08:14.609Z,77.64
2018-03-27T04:09:14.767Z,77.83
2018-03-27T04:10:14.949Z,77.54
2018-03-27T04:11:15.088Z,77.73
2018-03-27T04:12:15.248Z,76.97
2018-03-27T04:13:15.413Z,77.35
2018-03-27T04:14:15.580Z,77.45
2018-03-27T04:15:15.755Z,77.73
2018-03-27T04:16:15.915Z,77.45
2018-03-27T04:17:16.080Z,78.30
2018-03-27T04:18:16.242Z,77.73
2018-03-27T04:19:16.398Z,78.30
2018-03-27T04:20:16.562Z,78.58
2018-03-27T04:21:16.721Z,78.58
2018-03-27T04:22:16.891Z,77.73
2018-03-27T04:23:17.060Z,77.83
2018-03-27T04:24:17.218Z,77.83
2018-03-27T04:25:17.385Z,77.73
2018-03-27T04:26:17.551Z,78.67
2018-03-27T04:27:17.724Z,78.58
2018-03-27T04:28:18.739Z,78.39
2018-03-27T04:29:18.028Z,78.30
2018-03-27T04:30:18.188Z,78.39
2018-03-27T04:31:18.352Z,78.77
2018-03-27T04:32:18.514Z,78.67
2018-03-27T04:33:18.675Z,78.49
2018-03-27T04:34:18.839Z,78.11
2018-03-27T04:35:19.002Z,78.11
2018-03-27T04:36:19.165Z,77.54
2018-03-27T04:37:19.332Z,77.45
2018-03-27T04:38:19.496Z,77.35
2018-03-27T04:39:19.662Z,77.16
2018-03-27T04:40:19.819Z,77.35
2018-03-27T04:41:19.982Z,77.54
2018-03-27T04:42:20.145Z,78.02
2018-03-27T04:43:20.305Z,78.39
2018-03-27T04:44:20.472Z,78.58
2018-03-27T04:45:20.640Z,78.30
2018-03-27T04:46:20.798Z,78.67
2018-03-27T04:47:20.961Z,78.39
2018-03-27T04:48:21.120Z,78.49
2018-03-27T04:49:21.276Z,78.67
2018-03-27T04:50:21.444Z,78.30
2018-03-27T04:51:21.613Z,78.77
2018-03-27T04:52:21.765Z,78.39
2018-03-27T04:53:21.926Z,78.11
2018-03-27T04:54:22.092Z,78.30
2018-03-27T04:55:22.254Z,78.67
2018-03-27T04:56:22.420Z,78.77
2018-03-27T04:57:22.581Z,78.30
2018-03-27T04:58:22.744Z,77.64
2018-03-27T04:59:22.909Z,77.83
2018-03-27T05:00:23.073Z,77.92
2018-03-27T05:01:23.236Z,78.39
2018-03-27T05:02:23.412Z,78.49
2018-03-27T05:03:23.565Z,77.64
2018-03-27T05:04:23.731Z,77.92
2018-03-27T05:05:23.890Z,77.73
2018-03-27T05:06:24.050Z,77.64
2018-03-27T05:07:24.208Z,78.39
2018-03-27T05:08:24.376Z,78.20
2018-03-27T05:09:24.529Z,78.11
2018-03-27T05:10:24.709Z,77.54
2018-03-27T05:11:24.879Z,78.67
2018-03-27T05:12:25.042Z,78.30
2018-03-27T05:13:25.204Z,79.63
2018-03-27T05:14:25.371Z,79.44
2018-03-27T05:15:25.538Z,79.15
2018-03-27T05:16:25.703Z,79.53
2018-03-27T05:17:25.861Z,79.82
2018-03-27T05:18:26.023Z,79.25
2018-03-27T05:19:26.190Z,79.58
2018-03-27T05:20:26.355Z,79.68
2018-03-27T05:21:26.520Z,80.10
2018-03-27T05:22:26.689Z,79.87
2018-03-27T05:23:26.850Z,79.44
2018-03-27T05:24:27.021Z,79.68
2018-03-27T05:25:27.185Z,79.58
2018-03-27T05:26:27.399Z,79.49
2018-03-27T05:27:27.519Z,79.77
2018-03-27T05:28:27.668Z,80.44
2018-03-27T05:29:27.829Z,80.25
2018-03-27T05:30:27.992Z,80.38
2018-03-27T05:31:28.158Z,80.06
2018-03-27T05:32:28.324Z,80.34
2018-03-27T05:33:28.539Z,80.19
2018-03-27T05:34:29.027Z,80.19
2018-03-27T05:35:29.250Z,79.34
2018-03-27T05:36:29.280Z,79.63
2018-03-27T05:37:29.432Z,79.25
2018-03-27T05:38:29.618Z,79.30
2018-03-27T05:39:29.779Z,79.63
2018-03-27T05:40:29.958Z,79.06
2018-03-27T05:41:30.164Z,78.58
2018-03-27T05:42:30.283Z,78.49
2018-03-27T05:43:30.063Z,78.58
2018-03-27T05:44:30.224Z,78.49
2018-03-27T05:45:30.388Z,78.39
2018-03-27T05:46:30.549Z,78.96
2018-03-27T05:47:30.709Z,78.20
2018-03-27T05:48:30.870Z,78.02
2018-03-27T05:49:31.034Z,77.64
2018-03-27T05:50:31.193Z,77.25
2018-03-27T05:51:31.363Z,77.54
2018-03-27T05:52:31.522Z,76.68
2018-03-27T05:53:31.682Z,77.06
2018-03-27T05:54:31.841Z,76.97
2018-03-27T05:55:32.015Z,76.40
2018-03-27T05:56:32.178Z,76.87
2018-03-27T05:57:32.337Z,77.64
2018-03-27T05:58:32.501Z,77.54
2018-03-27T05:59:32.670Z,77.45
2018-03-27T06:00:32.835Z,77.73
2018-03-27T06:01:33.012Z,77.83
2018-03-27T06:02:33.171Z,78.11
2018-03-27T06:03:33.341Z,78.87
2018-03-27T06:04:33.509Z,78.49
2018-03-27T06:05:33.659Z,78.49
2018-03-27T06:06:33.881Z,78.39
2018-03-27T06:07:33.936Z,78.49
2018-03-27T06:08:34.101Z,78.67
2018-03-27T06:09:34.261Z,78.58
2018-03-27T06:10:34.423Z,78.02
2018-03-27T06:11:34.592Z,78.02
2018-03-27T06:12:35.257Z,78.49
2018-03-27T06:13:36.751Z,77.73
2018-03-27T06:14:35.043Z,77.92
2018-03-27T06:15:35.205Z,77.92
2018-03-27T06:16:35.368Z,77.35
2018-03-27T06:17:36.250Z,77.16
2018-03-27T06:18:35.659Z,77.35
2018-03-27T06:19:37.754Z,77.54
2018-03-27T06:20:36.044Z,77.54
2018-03-27T06:21:36.204Z,77.35
2018-03-27T06:22:36.432Z,77.25
2018-03-27T06:23:36.461Z,77.29
2018-03-27T06:24:36.621Z,77.25
2018-03-27T06:25:36.776Z,77.39
2018-03-27T06:26:36.944Z,77.06
2018-03-27T06:27:37.325Z,77.35
2018-03-27T06:28:37.333Z,77.35
2018-03-27T06:29:37.487Z,77.48
2018-03-27T06:30:37.672Z,76.63
2018-03-27T06:31:37.836Z,76.63
2018-03-27T06:32:38.026Z,76.63
2018-03-27T06:33:38.162Z,76.54
2018-03-27T06:34:38.316Z,76.73
2018-03-27T06:35:38.486Z,76.92
2018-03-27T06:36:38.649Z,76.73
2018-03-27T06:37:38.810Z,76.73
2018-03-27T06:38:38.986Z,76.54
2018-03-27T06:39:39.136Z,75.87
2018-03-27T06:40:39.303Z,75.87
2018-03-27T06:41:39.463Z,76.06
2018-03-27T06:42:39.653Z,76.34
2018-03-27T06:43:39.776Z,76.92
2018-03-27T06:44:39.946Z,76.73
2018-03-27T06:45:40.758Z,77.01
2018-03-27T06:46:40.398Z,76.63
2018-03-27T06:47:40.455Z,77.11
2018-03-27T06:48:40.614Z,76.63
2018-03-27T06:49:41.312Z,76.15
2018-03-27T06:50:41.056Z,76.06
2018-03-27T06:51:46.076Z,75.43
2018-03-27T06:52:41.434Z,75.05
2018-03-27T06:53:41.449Z,75.15
2018-03-27T06:54:41.872Z,74.96
2018-03-27T06:55:44.996Z,74.77
2018-03-27T06:56:42.339Z,75.24
2018-03-27T06:57:42.151Z,75.15
2018-03-27T06:58:42.324Z,74.49
2018-03-27T06:59:42.492Z,75.34
2018-03-27T07:00:42.661Z,75.24
2018-03-27T07:01:42.815Z,74.30
2018-03-27T07:02:42.974Z,74.49
2018-03-27T07:03:43.148Z,74.77
2018-03-27T07:04:43.358Z,74.77
2018-03-27T07:05:43.509Z,75.05
2018-03-27T07:06:43.616Z,74.96
2018-03-27T07:07:43.775Z,74.96
2018-03-27T07:08:43.944Z,74.68
2018-03-27T07:09:44.116Z,74.49
2018-03-27T07:10:44.270Z,74.20
2018-03-27T07:11:44.441Z,73.72
2018-03-27T07:12:44.581Z,73.25
2018-03-27T07:13:44.737Z,73.54
2018-03-27T07:14:44.916Z,72.53
2018-03-27T07:15:45.074Z,72.53
2018-03-27T07:16:45.253Z,71.77
2018-03-27T07:17:45.390Z,70.82
2018-03-27T07:18:45.551Z,70.44
2018-03-27T07:19:45.707Z,70.19
2018-03-27T07:20:45.856Z,69.43
2018-03-27T07:21:46.015Z,69.05
2018-03-27T07:22:46.174Z,68.86
2018-03-27T07:23:46.338Z,68.77
2018-03-27T07:24:46.510Z,68.96
2018-03-27T07:25:46.644Z,68.77
2018-03-27T07:26:46.827Z,68.58
2018-03-27T07:27:46.970Z,68.96
2018-03-27T07:28:47.144Z,69.62
2018-03-27T07:29:47.302Z,69.62
2018-03-27T07:30:47.475Z,69.43
2018-03-27T07:31:47.627Z,68.77
2018-03-27T07:32:47.783Z,69.24
2018-03-27T07:33:47.942Z,67.47
2018-03-27T07:34:48.112Z,66.65
2018-03-27T07:35:48.262Z,65.32
2018-03-27T07:36:48.432Z,64.02
2018-03-27T07:37:48.603Z,62.72
2018-03-27T07:38:48.757Z,61.22
2018-03-27T07:39:49.107Z,59.61
2018-03-27T07:40:49.146Z,58.78
2018-03-27T07:41:49.676Z,56.71
2018-03-27T07:42:49.456Z,55.38
2018-03-27T07:43:49.626Z,54.45
2018-03-27T07:44:49.794Z,54.17
2018-03-27T07:45:49.964Z,52.73
2018-03-27T07:46:50.130Z,52.92
2018-03-27T07:47:50.329Z,51.59
2018-03-27T07:48:50.497Z,51.81
2018-03-27T07:49:50.666Z,51.43
2018-03-27T07:50:50.872Z,50.76
2018-03-27T07:51:50.999Z,51.62
2018-03-27T07:52:51.772Z,51.78
2018-03-27T07:53:51.318Z,53.95
2018-03-27T07:54:52.284Z,54.68
2018-03-27T07:55:52.290Z,56.46
2018-03-27T07:56:51.836Z,56.65
2018-03-27T07:57:52.775Z,57.23
2018-03-27T07:58:52.188Z,59.13
2018-03-27T07:59:52.354Z,59.48
2018-03-27T08:00:52.522Z,59.42
2018-03-27T08:01:52.692Z,59.58
2018-03-27T08:02:52.858Z,59.01
2018-03-27T08:03:53.021Z,59.67
2018-03-27T08:04:53.194Z,60.41
2018-03-27T08:05:53.359Z,61.35
2018-03-27T08:06:53.534Z,62.12
2018-03-27T08:07:53.702Z,62.78
2018-03-27T08:08:53.867Z,62.59
2018-03-27T08:09:54.035Z,63.07
2018-03-27T08:10:54.207Z,63.73
2018-03-27T08:11:54.375Z,64.40
2018-03-27T08:12:54.546Z,63.17
2018-03-27T08:13:54.706Z,63.48
2018-03-27T08:14:54.890Z,62.81
2018-03-27T08:15:55.062Z,62.72
2018-03-27T08:16:55.226Z,62.27
2018-03-27T08:17:55.394Z,59.74
2018-03-27T08:18:55.582Z,57.12
2018-03-27T08:19:55.758Z,54.96
2018-03-27T08:20:55.954Z,52.12
2018-03-27T08:21:56.114Z,49.54
2018-03-27T08:22:56.287Z,49.80
2018-03-27T08:23:56.532Z,50.76
2018-03-27T08:24:56.625Z,51.76
2018-03-27T08:25:56.807Z,53.69
2018-03-27T08:26:56.969Z,53.76
2018-03-27T08:27:57.133Z,53.92
2018-03-27T08:28:57.305Z,55.85
2018-03-27T08:29:57.471Z,55.95
2018-03-27T08:30:57.632Z,55.57
2018-03-27T08:31:58.774Z,54.90
2018-03-27T08:32:57.939Z,54.88
2018-03-27T08:33:58.106Z,55.92
2018-03-27T08:34:58.271Z,53.91
2018-03-27T08:35:58.438Z,51.68
2018-03-27T08:36:58.612Z,51.12
2018-03-27T08:37:59.282Z,50.67
2018-03-27T08:38:59.709Z,48.57
2018-03-27T08:39:59.110Z,46.70
2018-03-27T08:40:59.272Z,43.85
2018-03-27T08:41:59.440Z,42.13
2018-03-27T08:42:59.621Z,41.51
2018-03-27T08:43:59.791Z,41.84
2018-03-27T08:44:59.990Z,40.71
2018-03-27T08:46:00.143Z,40.33
2018-03-27T08:47:00.318Z,41.70
2018-03-27T08:48:00.495Z,43.54
2018-03-27T08:49:00.673Z,43.49
2018-03-27T08:50:01.787Z,41.50
2018-03-27T08:51:01.832Z,39.58
2018-03-27T08:52:01.209Z,38.72
2018-03-27T08:53:01.249Z,37.74
2018-03-27T08:54:02.285Z,39.01
2018-03-27T08:55:01.584Z,37.51
2018-03-27T08:56:02.296Z,35.99
2018-03-27T08:57:02.108Z,35.82
2018-03-27T08:58:02.277Z,34.86
2018-03-27T08:59:17.448Z,33.90
2018-03-27T09:00:26.538Z,34.53
2018-03-27T09:01:02.757Z,33.82
2018-03-27T09:02:02.911Z,33.88
2018-03-27T09:03:03.042Z,35.32
2018-03-27T09:04:03.217Z,34.34
2018-03-27T09:05:03.398Z,35.13
2018-03-27T09:06:03.722Z,35.86
2018-03-27T09:07:03.848Z,36.36
2018-03-27T09:08:03.887Z,36.18
2018-03-27T09:09:04.074Z,35.14
2018-03-27T09:10:04.228Z,33.36
2018-03-27T09:11:04.604Z,33.05
2018-03-27T09:12:04.777Z,32.46
2018-03-27T09:13:05.233Z,32.49
2018-03-27T09:14:04.881Z,32.20
2018-03-27T09:15:05.048Z,31.53
2018-03-27T09:16:05.220Z,31.99
2018-03-27T09:17:05.392Z,31.82
2018-03-27T09:18:05.671Z,32.28
2018-03-27T09:19:06.094Z,32.09
2018-03-27T09:20:06.293Z,31.92
2018-03-27T09:21:06.546Z,32.84
2018-03-27T09:22:06.347Z,33.86
2018-03-27T09:23:06.417Z,34.84
2018-03-27T09:24:06.596Z,34.57
2018-03-27T09:25:07.061Z,35.19
2018-03-27T09:26:07.243Z,37.45
2018-03-27T09:27:07.331Z,38.91
2018-03-27T09:28:07.457Z,38.60
2018-03-27T09:29:07.547Z,38.34
2018-03-27T09:30:07.936Z,37.28
2018-03-27T09:31:08.179Z,36.07
2018-03-27T09:32:08.091Z,36.51
2018-03-27T09:33:08.375Z,38.20
2018-03-27T09:34:08.683Z,38.66
2018-03-27T09:35:09.220Z,40.34
2018-03-27T09:36:08.821Z,43.09
2018-03-27T09:37:08.865Z,43.26
2018-03-27T09:38:09.054Z,44.02
2018-03-27T09:39:09.254Z,44.22
2018-03-27T09:40:09.447Z,43.91
2018-03-27T09:41:09.653Z,43.50
2018-03-27T09:42:09.841Z,40.00
2018-03-27T09:43:10.015Z,40.06
2018-03-27T09:44:10.184Z,41.83
2018-03-27T09:45:10.364Z,42.57
2018-03-27T09:46:10.534Z,43.32
2018-03-27T09:47:10.702Z,45.03
2018-03-27T09:48:10.882Z,45.20
2018-03-27T09:49:11.076Z,45.68
2018-03-27T09:50:11.327Z,45.51
2018-03-27T09:51:11.503Z,44.84
2018-03-27T09:52:11.661Z,45.34
2018-03-27T09:53:11.830Z,44.48
2018-03-27T09:54:11.998Z,43.43
2018-03-27T09:55:12.182Z,43.51
2018-03-27T09:56:12.344Z,43.13
2018-03-27T09:57:12.517Z,45.22
2018-03-27T09:58:12.688Z,45.22
2018-03-27T09:59:12.858Z,45.13
2018-03-27T10:00:13.031Z,44.17
2018-03-27T10:01:13.203Z,43.43
2018-03-27T10:02:13.377Z,42.46
2018-03-27T10:03:13.530Z,43.22
2018-03-27T10:04:13.701Z,43.51
2018-03-27T10:05:13.873Z,43.13
2018-03-27T10:06:14.049Z,42.63
2018-03-27T10:08:07.355Z,43.03
2018-03-27T10:09:06.524Z,41.50
2018-03-27T10:10:06.977Z,41.69
2018-03-27T10:11:07.020Z,40.09
2018-03-27T10:12:07.044Z,37.97
2018-03-27T10:13:07.455Z,34.34
2018-03-27T10:14:07.641Z,34.78
2018-03-27T10:15:08.270Z,34.39
2018-03-27T10:16:09.266Z,30.27
2018-03-27T10:17:08.376Z,29.28
2018-03-27T10:18:08.066Z,29.11
2018-03-27T10:19:09.694Z,29.58
2018-03-27T10:20:08.586Z,28.78
2018-03-27T10:21:09.272Z,26.46
2018-03-27T10:22:09.432Z,26.45
2018-03-27T10:23:09.630Z,25.47
2018-03-27T10:24:09.830Z,23.78
2018-03-27T10:25:09.589Z,21.11
2018-03-27T10:26:09.643Z,21.55
2018-03-27T10:27:09.661Z,22.39
2018-03-27T10:28:09.792Z,22.12
2018-03-27T10:29:11.003Z,21.07
2018-03-27T10:30:10.204Z,21.91
2018-03-27T10:31:10.356Z,23.31
2018-03-27T10:32:10.518Z,25.59
2018-03-27T10:33:10.704Z,27.37
2018-03-27T10:34:10.876Z,28.63
2018-03-27T10:35:11.055Z,28.05
2018-03-27T10:36:11.223Z,26.19
2018-03-27T10:37:11.400Z,25.13
2018-03-27T10:38:11.569Z,26.53
2018-03-27T10:39:11.767Z,27.00
2018-03-27T10:40:11.948Z,27.58
2018-03-27T10:41:12.084Z,28.42
2018-03-27T10:42:12.260Z,28.42
2018-03-27T10:43:12.531Z,28.41
2018-03-27T10:44:12.612Z,28.68
2018-03-27T10:45:12.792Z,28.86
2018-03-27T10:46:12.965Z,28.38
2018-03-27T10:47:13.155Z,29.08
2018-03-27T10:48:13.329Z,28.70
2018-03-27T10:49:13.522Z,27.56
2018-03-27T10:50:13.689Z,26.41
2018-03-27T10:51:13.860Z,24.66
2018-03-27T10:52:14.045Z,23.78
2018-03-27T10:53:14.205Z,22.22
2018-03-27T10:54:14.384Z,20.21
2018-03-27T10:55:14.554Z,19.24
2018-03-27T10:56:14.741Z,19.74
2018-03-27T10:57:14.908Z,18.70
2018-03-27T10:58:15.086Z,17.75
2018-03-27T10:59:15.265Z,17.54
2018-03-27T11:00:15.439Z,17.60
2018-03-27T11:01:15.620Z,19.60
2018-03-27T11:02:15.793Z,21.51
2018-03-27T11:03:15.964Z,20.89
2018-03-27T11:04:16.219Z,19.60
2018-03-27T11:05:16.274Z,19.61
2018-03-27T11:06:16.454Z,18.76
2018-03-27T11:07:16.626Z,18.63
2018-03-27T11:08:16.809Z,19.67
2018-03-27T11:09:16.997Z,19.63
2018-03-27T11:10:17.171Z,17.47
2018-03-27T11:11:17.347Z,14.78
2018-03-27T11:12:17.527Z,13.83
2018-03-27T11:13:17.709Z,12.49
2018-03-27T11:14:17.894Z,11.63
2018-03-27T11:15:18.070Z,13.50
2018-03-27T11:16:18.252Z,15.97
2018-03-27T11:17:18.442Z,17.03
2018-03-27T11:18:18.632Z,16.19
2018-03-27T11:19:18.813Z,15.33
2018-03-27T11:20:19.010Z,16.10
2018-03-27T11:21:19.177Z,17.09
2018-03-27T11:22:19.360Z,15.08
2018-03-27T11:23:19.556Z,14.00
2018-03-27T11:24:19.741Z,15.98
2018-03-27T11:25:19.924Z,15.53
2018-03-27T11:26:20.100Z,14.66
2018-03-27T11:27:20.271Z,13.82
2018-03-27T11:28:20.472Z,12.21
2018-03-27T11:29:20.645Z,12.87
2018-03-27T11:30:20.828Z,12.48
2018-03-27T11:31:21.020Z,13.31
2018-03-27T11:32:21.202Z,14.45
2018-03-27T11:33:21.381Z,17.49
2018-03-27T11:34:21.580Z,17.61
2018-03-27T11:35:21.762Z,17.41
2018-03-27T11:36:21.946Z,19.21
2018-03-27T11:37:22.133Z,19.67
2018-03-27T11:38:22.315Z,20.15
2018-03-27T11:39:22.505Z,20.53
2018-03-27T11:40:22.696Z,22.18
2018-03-27T11:41:22.879Z,19.82
2018-03-27T11:42:23.794Z,18.12
2018-03-27T11:43:23.231Z,17.83
2018-03-27T11:44:23.418Z,15.55
2018-03-27T11:45:23.598Z,15.89
2018-03-27T11:46:23.781Z,17.88
2018-03-27T11:49:00.664Z,20.25
2018-03-27T11:50:00.548Z,21.78
2018-03-27T11:51:01.060Z,22.14
2018-03-27T11:52:00.189Z,23.85
2018-03-27T11:53:00.551Z,24.51
2018-03-27T11:54:01.111Z,25.29
2018-03-27T11:55:04.061Z,23.25
2018-03-27T11:56:03.574Z,22.25
2018-03-27T11:57:01.552Z,23.57
2018-03-27T11:58:01.783Z,24.05
2018-03-27T11:59:02.077Z,23.88
2018-03-27T12:00:03.052Z,23.66
2018-03-27T12:01:02.064Z,24.81
2018-03-27T12:02:04.631Z,25.84
2018-03-27T12:03:03.074Z,26.89
2018-03-27T12:04:03.059Z,27.55
2018-03-27T12:05:02.229Z,28.39
2018-03-27T12:06:03.051Z,28.87
2018-03-27T12:07:02.662Z,29.62
2018-03-27T12:08:03.598Z,29.91
2018-03-27T12:09:03.549Z,29.61
2018-03-27T12:10:05.069Z,31.21
2018-03-27T12:11:04.561Z,31.79
2018-03-27T12:12:04.062Z,32.26
2018-03-27T12:13:04.556Z,32.65
2018-03-27T12:14:03.846Z,32.55
2018-03-27T12:15:05.585Z,32.65
2018-03-27T12:16:05.114Z,33.01
2018-03-27T12:17:28.647Z,33.58
2018-03-27T12:18:04.398Z,33.98
2018-03-27T12:19:04.598Z,33.33
2018-03-27T12:20:04.768Z,32.41
2018-03-27T12:21:04.940Z,31.93
2018-03-27T12:22:05.102Z,31.55
2018-03-27T12:23:05.282Z,31.16
2018-03-27T12:24:05.459Z,30.98
2018-03-27T12:25:05.630Z,31.05
2018-03-27T12:26:05.808Z,32.87
2018-03-27T12:27:05.982Z,31.92
2018-03-27T12:28:06.163Z,31.16
2018-03-27T12:29:06.329Z,30.98
2018-03-27T12:30:06.515Z,33.17
2018-03-27T12:31:06.688Z,33.46
2018-03-27T12:32:06.910Z,31.76
2018-03-27T12:33:07.031Z,31.95
2018-03-27T12:34:07.209Z,30.88
2018-03-27T12:35:07.398Z,31.95
2018-03-27T12:36:07.568Z,30.91
2018-03-27T12:37:07.742Z,29.68
2018-03-27T12:38:08.556Z,29.49
2018-03-27T12:39:08.040Z,29.77
2018-03-27T12:40:08.240Z,30.16
2018-03-27T12:41:09.143Z,30.35
2018-03-27T12:42:08.577Z,29.86
2018-03-27T12:43:08.747Z,29.58
2018-03-27T12:44:08.920Z,29.47
2018-03-27T12:45:09.094Z,30.61
2018-03-27T12:46:09.267Z,29.94
2018-03-27T12:47:09.449Z,30.51
2018-03-27T12:48:09.627Z,31.74
2018-03-27T12:52:37.190Z,33.71
2018-03-27T12:53:36.862Z,33.71
2018-03-27T12:54:37.032Z,34.95
2018-03-27T12:55:37.196Z,34.86
2018-03-27T12:56:37.363Z,35.33
2018-03-27T12:57:37.530Z,35.91
2018-03-27T12:58:37.695Z,35.53
2018-03-27T12:59:37.882Z,35.33
2018-03-27T13:00:38.058Z,35.53
2018-03-27T13:01:38.343Z,35.33